Time,TemperatureF,DewpointF,PressureIn,WindDirection,WindDirectionDegrees,WindSpeedMPH,WindSpeedGustMPH,Humidity,HourlyPrecipIn,Conditions,Clouds,dailyrainin,SoftwareType,DateUTC
2017-11-22 00:00:00,32.7,25.7,30.05,WNW,292,4.7,-999.0,75,-99.99,,,0.00,,2017-11-22 05:00:00,
2017-11-22 00:06:00,32.5,25.5,30.06,West,270,4.2,-999.0,75,-99.99,,,0.00,,2017-11-22 05:06:00,
2017-11-22 00:16:00,32.5,25.5,29.08,NNW,337,5.8,-999.0,75,-99.99,,,0.00,,2017-11-22 05:16:00,
2017-11-22 00:22:00,32.5,25.8,30.06,WNW,292,4.2,-999.0,76,-99.99,,,0.00,,2017-11-22 05:22:00,
2017-11-22 00:27:00,32.5,25.5,30.07,NNW,337,7.3,-999.0,75,-99.99,,,0.00,,2017-11-22 05:27:00,
2017-11-22 00:43:00,32.4,25.7,30.07,WNW,292,2.7,-999.0,76,-99.99,,,0.00,,2017-11-22 05:43:00,
2017-11-22 00:48:00,32.4,25.7,30.07,WNW,292,4.2,-999.0,76,-99.99,,,0.00,,2017-11-22 05:48:00,
2017-11-22 00:59:00,32.4,25.7,30.07,WNW,292,3.7,-999.0,76,-99.99,,,0.00,,2017-11-22 05:59:00,
2017-11-22 01:10:00,32.2,25.2,30.08,NW,315,5.3,-999.0,75,-99.99,,,0.00,,2017-11-22 06:10:00,
2017-11-22 01:15:00,32.2,25.8,30.08,WNW,292,2.7,-999.0,77,-99.99,,,0.00,,2017-11-22 06:15:00,
2017-11-22 01:20:00,32.0,25.3,30.08,WNW,292,4.2,-999.0,76,-99.99,,,0.00,,2017-11-22 06:20:00,
2017-11-22 01:25:00,32.0,25.6,30.08,NNE,22,4.7,-999.0,77,-99.99,,,0.00,,2017-11-22 06:25:00,
2017-11-22 01:30:00,31.8,25.1,30.09,NW,315,6.8,-999.0,76,-99.99,,,0.00,,2017-11-22 06:30:00,
2017-11-22 01:36:00,31.6,24.9,30.09,NW,315,7.8,-999.0,76,-99.99,,,0.00,,2017-11-22 06:36:00,
2017-11-22 01:58:00,31.3,24.3,30.10,NNW,337,5.8,-999.0,75,-99.99,,,0.00,,2017-11-22 06:58:00,
2017-11-22 02:13:00,31.1,24.1,30.11,West,270,3.2,-999.0,75,-99.99,,,0.00,,2017-11-22 07:13:00,
2017-11-22 02:19:00,31.1,24.1,30.11,WNW,292,3.7,-999.0,75,-99.99,,,0.00,,2017-11-22 07:19:00,
2017-11-22 02:24:00,31.1,23.8,30.11,WSW,247,2.2,-999.0,74,-99.99,,,0.00,,2017-11-22 07:24:00,
2017-11-22 02:30:00,30.9,23.9,30.12,WNW,292,7.3,-999.0,75,-99.99,,,0.00,,2017-11-22 07:30:00,
2017-11-22 02:35:00,30.9,23.6,30.12,West,270,5.3,-999.0,74,-99.99,,,0.00,,2017-11-22 07:35:00,
2017-11-22 02:40:00,30.9,23.6,30.13,West,270,5.8,-999.0,74,-99.99,,,0.00,,2017-11-22 07:40:00,
2017-11-22 02:45:00,30.9,23.9,30.13,WNW,292,4.7,-999.0,75,-99.99,,,0.00,,2017-11-22 07:45:00,
2017-11-22 02:55:00,30.7,23.7,30.13,NW,315,4.7,-999.0,75,-99.99,,,0.00,,2017-11-22 07:55:00,
2017-11-22 03:01:00,30.7,23.4,30.13,NW,315,3.2,-999.0,74,-99.99,,,0.00,,2017-11-22 08:01:00,
2017-11-22 03:07:00,30.7,23.7,30.13,WNW,292,2.7,-999.0,75,-99.99,,,0.00,,2017-11-22 08:07:00,
2017-11-22 03:11:00,30.7,23.7,30.13,West,270,3.2,-999.0,75,-99.99,,,0.00,,2017-11-22 08:11:00,
2017-11-22 03:17:00,30.6,23.6,30.13,West,270,4.7,-999.0,75,-99.99,,,0.00,,2017-11-22 08:17:00,
2017-11-22 03:22:00,30.6,23.6,30.13,West,270,3.7,-999.0,75,-99.99,,,0.00,,2017-11-22 08:22:00,
2017-11-22 03:38:00,30.6,23.9,30.15,NNW,337,4.7,-999.0,76,-99.99,,,0.00,,2017-11-22 08:38:00,
2017-11-22 03:43:00,30.6,23.9,30.15,West,270,3.7,-999.0,76,-99.99,,,0.00,,2017-11-22 08:43:00,
2017-11-22 03:48:00,30.6,23.9,30.15,West,270,2.7,-999.0,76,-99.99,,,0.00,,2017-11-22 08:48:00,
2017-11-22 03:53:00,30.6,23.9,30.15,NNW,337,4.7,-999.0,76,-99.99,,,0.00,,2017-11-22 08:53:00,
2017-11-22 03:58:00,30.6,23.9,30.15,WSW,247,4.2,-999.0,76,-99.99,,,0.00,,2017-11-22 08:58:00,
2017-11-22 04:09:00,30.4,23.7,30.15,West,270,3.2,-999.0,76,-99.99,,,0.00,,2017-11-22 09:09:00,
2017-11-22 04:15:00,30.4,23.7,30.16,West,270,4.2,-999.0,76,-99.99,,,0.00,,2017-11-22 09:15:00,
2017-11-22 04:20:00,30.4,23.7,30.16,NW,315,4.7,-999.0,76,-99.99,,,0.00,,2017-11-22 09:20:00,
2017-11-22 04:26:00,30.4,24.1,30.16,WNW,292,2.2,-999.0,77,-99.99,,,0.00,,2017-11-22 09:26:00,
2017-11-22 04:31:00,30.4,24.1,30.16,West,270,1.7,-999.0,77,-99.99,,,0.00,,2017-11-22 09:31:00,
2017-11-22 04:52:00,30.2,23.5,30.18,NNE,22,4.2,-999.0,76,-99.99,,,0.00,,2017-11-22 09:52:00,
2017-11-22 05:03:00,30.0,23.0,29.21,WNW,292,6.3,-999.0,75,-99.99,,,0.00,,2017-11-22 10:03:00,
2017-11-22 05:05:00,29.8,22.8,30.19,NW,315,7.8,-999.0,75,-99.99,,,0.00,,2017-11-22 10:05:00,
2017-11-22 05:10:00,29.8,22.8,30.19,WNW,292,4.7,-999.0,75,-99.99,,,0.00,,2017-11-22 10:10:00,
2017-11-22 05:16:00,29.8,23.2,30.19,NW,315,3.7,-999.0,76,-99.99,,,0.00,,2017-11-22 10:16:00,
2017-11-22 05:27:00,29.8,22.5,30.20,NW,315,5.8,-999.0,74,-99.99,,,0.00,,2017-11-22 10:27:00,
2017-11-22 05:37:00,29.7,22.4,30.20,WNW,292,4.2,-999.0,74,-99.99,,,0.00,,2017-11-22 10:37:00,
2017-11-22 05:43:00,29.7,22.4,30.20,WNW,292,4.7,-999.0,74,-99.99,,,0.00,,2017-11-22 10:43:00,
2017-11-22 05:48:00,29.7,22.1,30.20,WNW,292,3.7,-999.0,73,-99.99,,,0.00,,2017-11-22 10:48:00,
2017-11-22 05:53:00,29.5,21.9,30.21,WNW,292,5.8,-999.0,73,-99.99,,,0.00,,2017-11-22 10:53:00,
2017-11-22 05:58:00,29.5,21.9,30.21,NNW,337,5.3,-999.0,73,-99.99,,,0.00,,2017-11-22 10:58:00,
2017-11-22 06:04:00,29.3,21.7,30.21,NW,315,7.8,-999.0,73,-99.99,,,0.00,,2017-11-22 11:04:00,
2017-11-22 06:10:00,29.3,21.7,30.21,West,270,5.8,-999.0,73,-99.99,,,0.00,,2017-11-22 11:10:00,
2017-11-22 06:15:00,29.1,21.5,30.22,WNW,292,5.8,-999.0,73,-99.99,,,0.00,,2017-11-22 11:15:00,
2017-11-22 06:21:00,28.9,21.0,30.22,West,270,4.7,-999.0,72,-99.99,,,0.00,,2017-11-22 11:21:00,
2017-11-22 06:26:00,28.9,21.3,29.24,West,270,2.7,-999.0,73,-99.99,,,0.00,,2017-11-22 11:26:00,
2017-11-22 06:31:00,28.8,21.2,30.22,NW,315,4.7,-999.0,73,-99.99,,,0.00,,2017-11-22 11:31:00,
2017-11-22 06:36:00,28.8,21.2,30.22,NW,315,3.7,-999.0,73,-99.99,,,0.00,,2017-11-22 11:36:00,
2017-11-22 06:42:00,28.6,21.0,30.23,WNW,292,4.2,-999.0,73,-99.99,,,0.00,,2017-11-22 11:42:00,
2017-11-22 06:47:00,28.6,21.0,30.23,NNE,22,3.2,-999.0,73,-99.99,,,0.00,,2017-11-22 11:47:00,
2017-11-22 06:52:00,28.6,21.0,30.23,WNW,292,4.7,-999.0,73,-99.99,,,0.00,,2017-11-22 11:52:00,
2017-11-22 06:57:00,28.4,20.5,29.25,WNW,292,7.8,-999.0,72,-99.99,,,0.00,,2017-11-22 11:57:00,
2017-11-22 07:03:00,28.4,20.5,30.23,NNE,22,5.3,-999.0,72,-99.99,,,0.00,,2017-11-22 12:03:00,
2017-11-22 07:14:00,28.4,20.5,30.23,NNE,22,6.3,-999.0,72,-99.99,,,0.00,,2017-11-22 12:14:00,
2017-11-22 07:19:00,28.2,20.3,30.24,WNW,292,4.2,-999.0,72,-99.99,,,0.00,,2017-11-22 12:19:00,
2017-11-22 07:24:00,28.0,19.5,29.26,West,270,3.7,-999.0,70,-99.99,,,0.00,,2017-11-22 12:24:00,
2017-11-22 07:28:00,27.9,19.4,30.24,West,270,2.7,-999.0,70,-99.99,,,0.00,,2017-11-22 12:28:00,
2017-11-22 07:34:00,27.9,19.4,30.24,NW,315,2.7,-999.0,70,-99.99,,,0.00,,2017-11-22 12:34:00,
2017-11-22 07:39:00,27.7,19.5,30.25,SW,225,1.7,-999.0,71,-99.99,,,0.00,,2017-11-22 12:39:00,
2017-11-22 07:55:00,27.7,19.5,30.25,West,270,2.2,-999.0,71,-99.99,,,0.00,,2017-11-22 12:55:00,
2017-11-22 08:01:00,27.7,19.5,30.25,WNW,292,2.7,-999.0,71,-99.99,,,0.00,,2017-11-22 13:01:00,
2017-11-22 08:06:00,27.9,19.7,30.26,West,270,2.7,-999.0,71,-99.99,,,0.00,,2017-11-22 13:06:00,
2017-11-22 08:11:00,28.0,20.1,30.26,West,270,1.1,-999.0,72,-99.99,,,0.00,,2017-11-22 13:11:00,
2017-11-22 08:22:00,28.2,20.3,30.26,NW,315,4.7,-999.0,72,-99.99,,,0.00,,2017-11-22 13:22:00,
2017-11-22 08:27:00,28.4,20.5,30.27,WSW,247,1.7,-999.0,72,-99.99,,,0.00,,2017-11-22 13:27:00,
2017-11-22 08:42:00,28.8,20.6,30.27,West,270,3.2,-999.0,71,-99.99,,,0.00,,2017-11-22 13:42:00,
2017-11-22 08:53:00,29.1,20.5,30.27,WSW,247,2.7,-999.0,70,-99.99,,,0.00,,2017-11-22 13:53:00,
2017-11-22 08:58:00,29.7,21.1,30.27,West,270,2.7,-999.0,70,-99.99,,,0.00,,2017-11-22 13:58:00,
2017-11-22 09:04:00,30.0,21.1,30.27,WSW,247,2.7,-999.0,69,-99.99,,,0.00,,2017-11-22 14:04:00,
2017-11-22 09:09:00,30.6,21.6,30.27,WSW,247,3.2,-999.0,69,-99.99,,,0.00,,2017-11-22 14:09:00,
2017-11-22 09:14:00,30.7,21.4,29.28,NNE,22,2.7,-999.0,68,-99.99,,,0.00,,2017-11-22 14:14:00,
2017-11-22 09:24:00,31.1,21.1,30.26,West,270,2.2,-999.0,66,-99.99,,,0.00,,2017-11-22 14:24:00,
2017-11-22 09:29:00,31.1,20.7,29.29,NW,315,4.7,-999.0,65,-99.99,,,0.00,,2017-11-22 14:29:00,
2017-11-22 09:35:00,31.3,20.9,30.27,WNW,292,2.7,-999.0,65,-99.99,,,0.00,,2017-11-22 14:35:00,
2017-11-22 09:40:00,31.8,22.1,30.27,West,270,2.7,-999.0,67,-99.99,,,0.00,,2017-11-22 14:40:00,
2017-11-22 09:45:00,32.4,21.9,30.27,NNW,337,2.2,-999.0,65,-99.99,,,0.00,,2017-11-22 14:45:00,
2017-11-22 09:51:00,32.4,21.9,30.28,WNW,292,4.2,-999.0,65,-99.99,,,0.00,,2017-11-22 14:51:00,
2017-11-22 09:56:00,33.3,22.1,30.28,ESE,112,2.2,-999.0,63,-99.99,,,0.00,,2017-11-22 14:56:00,
2017-11-22 10:02:00,35.1,23.0,30.28,West,270,3.2,-999.0,61,-99.99,,,0.00,,2017-11-22 15:02:00,
2017-11-22 10:07:00,34.9,22.0,30.28,West,270,6.8,-999.0,59,-99.99,,,0.00,,2017-11-22 15:07:00,
2017-11-22 10:12:00,34.5,21.6,30.28,WNW,292,8.9,-999.0,59,-99.99,,,0.00,,2017-11-22 15:12:00,
2017-11-22 10:33:00,34.5,20.8,30.28,NW,315,5.3,-999.0,57,-99.99,,,0.00,,2017-11-22 15:33:00,
2017-11-22 10:38:00,33.6,20.4,30.28,West,270,5.8,-999.0,58,-99.99,,,0.00,,2017-11-22 15:38:00,
2017-11-22 10:48:00,33.4,20.2,30.28,NW,315,4.7,-999.0,58,-99.99,,,0.00,,2017-11-22 15:48:00,
2017-11-22 10:53:00,33.3,20.5,30.28,North,360,5.8,-999.0,59,-99.99,,,0.00,,2017-11-22 15:53:00,
2017-11-22 10:58:00,33.6,20.8,30.28,NNW,337,8.3,-999.0,59,-99.99,,,0.00,,2017-11-22 15:58:00,
2017-11-22 11:03:00,34.0,20.4,30.28,North,360,3.2,-999.0,57,-99.99,,,0.00,,2017-11-22 16:03:00,
2017-11-22 11:09:00,35.4,22.1,29.30,NNE,22,2.7,-999.0,58,-99.99,,,0.00,,2017-11-22 16:09:00,
2017-11-22 11:14:00,35.4,21.3,30.28,West,270,2.7,-999.0,56,-99.99,,,0.00,,2017-11-22 16:14:00,
2017-11-22 11:19:00,35.4,22.1,30.28,West,270,2.7,-999.0,58,-99.99,,,0.00,,2017-11-22 16:19:00,
2017-11-22 11:25:00,34.7,20.6,30.28,NW,315,5.8,-999.0,56,-99.99,,,0.00,,2017-11-22 16:25:00,
2017-11-22 11:37:00,33.8,20.2,30.29,NNW,337,6.3,-999.0,57,-99.99,,,0.00,,2017-11-22 16:37:00,
2017-11-22 11:47:00,34.0,20.4,30.29,WNW,292,2.7,-999.0,57,-99.99,,,0.00,,2017-11-22 16:47:00,
2017-11-22 11:52:00,34.2,20.5,30.28,WNW,292,2.7,-999.0,57,-99.99,,,0.00,,2017-11-22 16:52:00,
2017-11-22 12:02:00,37.4,22.3,30.28,WNW,292,4.2,-999.0,54,-99.99,,,0.00,,2017-11-22 17:02:00,
2017-11-22 12:13:00,36.1,20.6,30.28,NNW,337,4.7,-999.0,53,-99.99,,,0.00,,2017-11-22 17:13:00,
2017-11-22 12:19:00,36.5,21.0,30.27,WSW,247,2.2,-999.0,53,-99.99,,,0.00,,2017-11-22 17:19:00,
2017-11-22 12:30:00,38.5,22.4,30.27,SSE,157,1.1,-999.0,52,-99.99,,,0.00,,2017-11-22 17:30:00,
2017-11-22 12:35:00,39.9,22.8,30.27,NNE,22,1.7,-999.0,50,-99.99,,,0.00,,2017-11-22 17:35:00,
2017-11-22 12:40:00,41.2,23.5,29.28,NW,315,3.2,-999.0,49,-99.99,,,0.00,,2017-11-22 17:40:00,
2017-11-22 12:46:00,40.8,23.1,30.26,West,270,3.7,-999.0,49,-99.99,,,0.00,,2017-11-22 17:46:00,
2017-11-22 12:51:00,40.5,21.3,30.26,WNW,292,4.2,-999.0,46,-99.99,,,0.00,,2017-11-22 17:51:00,
2017-11-22 13:01:00,40.3,21.7,29.28,West,270,4.7,-999.0,47,-99.99,,,0.00,,2017-11-22 18:01:00,
2017-11-22 13:06:00,39.6,21.5,30.26,NNW,337,3.2,-999.0,48,-99.99,,,0.00,,2017-11-22 18:06:00,
2017-11-22 13:13:00,38.1,21.6,30.26,NNW,337,5.8,-999.0,51,-99.99,,,0.00,,2017-11-22 18:13:00,
2017-11-22 13:18:00,37.6,20.6,30.26,WNW,292,4.2,-999.0,50,-99.99,,,0.00,,2017-11-22 18:18:00,
2017-11-22 13:23:00,37.9,21.4,30.26,NE,45,4.2,-999.0,51,-99.99,,,0.00,,2017-11-22 18:23:00,
2017-11-22 13:29:00,37.9,21.4,30.25,WNW,292,3.2,-999.0,51,-99.99,,,0.00,,2017-11-22 18:29:00,
2017-11-22 13:34:00,38.5,21.5,30.25,West,270,3.7,-999.0,50,-99.99,,,0.00,,2017-11-22 18:34:00,
2017-11-22 13:39:00,39.4,22.3,30.25,SW,225,3.2,-999.0,50,-99.99,,,0.00,,2017-11-22 18:39:00,
2017-11-22 13:50:00,38.5,21.0,30.26,West,270,5.8,-999.0,49,-99.99,,,0.00,,2017-11-22 18:50:00,
2017-11-22 14:01:00,37.8,21.3,30.26,ESE,112,1.1,-999.0,51,-99.99,,,0.00,,2017-11-22 19:01:00,
2017-11-22 14:22:00,35.6,20.6,30.26,NW,315,4.2,-999.0,54,-99.99,,,0.00,,2017-11-22 19:22:00,
2017-11-22 14:27:00,35.8,20.3,30.25,SSW,202,3.7,-999.0,53,-99.99,,,0.00,,2017-11-22 19:27:00,
2017-11-22 14:33:00,36.0,21.0,30.25,WSW,247,2.7,-999.0,54,-99.99,,,0.00,,2017-11-22 19:33:00,
2017-11-22 14:38:00,36.1,21.5,30.25,West,270,3.7,-999.0,55,-99.99,,,0.00,,2017-11-22 19:38:00,
2017-11-22 14:43:00,36.0,21.0,30.25,WSW,247,2.2,-999.0,54,-99.99,,,0.00,,2017-11-22 19:43:00,
2017-11-22 14:48:00,35.4,20.4,30.25,West,270,3.2,-999.0,54,-99.99,,,0.00,,2017-11-22 19:48:00,
2017-11-22 14:59:00,34.3,20.2,30.25,NW,315,3.2,-999.0,56,-99.99,,,0.00,,2017-11-22 19:59:00,
2017-11-22 15:04:00,34.3,20.2,30.25,SSW,202,2.7,-999.0,56,-99.99,,,0.00,,2017-11-22 20:04:00,
2017-11-22 15:09:00,34.9,21.6,30.25,West,270,2.2,-999.0,58,-99.99,,,0.00,,2017-11-22 20:09:00,
2017-11-22 15:15:00,35.2,21.9,30.25,NW,315,1.7,-999.0,58,-99.99,,,0.00,,2017-11-22 20:15:00,
2017-11-22 15:21:00,35.1,21.4,30.25,West,270,3.2,-999.0,57,-99.99,,,0.00,,2017-11-22 20:21:00,
2017-11-22 15:32:00,34.5,21.2,30.26,SSW,202,2.7,-999.0,58,-99.99,,,0.00,,2017-11-22 20:32:00,
2017-11-22 15:37:00,34.2,21.0,30.26,WNW,292,2.7,-999.0,58,-99.99,,,0.00,,2017-11-22 20:37:00,
2017-11-22 15:43:00,33.8,21.4,29.27,SSW,202,2.7,-999.0,60,-99.99,,,0.00,,2017-11-22 20:43:00,
2017-11-22 15:48:00,33.3,20.5,29.27,NNE,22,4.2,-999.0,59,-99.99,,,0.00,,2017-11-22 20:48:00,
2017-11-22 15:53:00,32.7,20.3,30.25,West,270,3.7,-999.0,60,-99.99,,,0.00,,2017-11-22 20:53:00,
2017-11-22 15:58:00,32.5,20.2,30.25,WNW,292,2.7,-999.0,60,-99.99,,,0.00,,2017-11-22 20:58:00,
2017-11-22 16:04:00,32.4,20.4,30.25,WNW,292,2.2,-999.0,61,-99.99,,,0.00,,2017-11-22 21:04:00,
2017-11-22 16:09:00,32.2,20.6,30.25,NNW,337,1.7,-999.0,62,-99.99,,,0.00,,2017-11-22 21:09:00,
2017-11-22 16:24:00,31.5,20.3,30.25,WNW,292,2.2,-999.0,63,-99.99,,,0.00,,2017-11-22 21:24:00,
2017-11-22 16:30:00,31.5,20.3,30.26,NW,315,2.7,-999.0,63,-99.99,,,0.00,,2017-11-22 21:30:00,
2017-11-22 16:35:00,31.3,20.2,30.26,NW,315,2.7,-999.0,63,-99.99,,,0.00,,2017-11-22 21:35:00,
2017-11-22 16:40:00,31.1,20.0,30.26,WNW,292,1.7,-999.0,63,-99.99,,,0.00,,2017-11-22 21:40:00,
2017-11-22 16:51:00,30.6,20.2,30.26,West,270,2.7,-999.0,65,-99.99,,,0.00,,2017-11-22 21:51:00,
2017-11-22 16:56:00,30.4,20.0,30.26,West,270,2.7,-999.0,65,-99.99,,,0.00,,2017-11-22 21:56:00,
2017-11-22 17:01:00,30.2,20.2,30.26,WNW,292,2.7,-999.0,66,-99.99,,,0.00,,2017-11-22 22:01:00,
2017-11-22 17:06:00,29.8,19.8,30.26,West,270,1.7,-999.0,66,-99.99,,,0.00,,2017-11-22 22:06:00,
2017-11-22 17:11:00,29.5,19.5,30.26,SW,225,0.0,-999.0,66,-99.99,,,0.00,,2017-11-22 22:11:00,
2017-11-22 17:16:00,28.9,20.0,30.26,SSW,202,0.0,-999.0,69,-99.99,,,0.00,,2017-11-22 22:16:00,
2017-11-22 17:32:00,27.5,19.0,30.26,East,90,0.0,-999.0,70,-99.99,,,0.00,,2017-11-22 22:32:00,
2017-11-22 17:38:00,27.1,19.3,30.26,SSW,202,0.0,-999.0,72,-99.99,,,0.00,,2017-11-22 22:38:00,
2017-11-22 17:43:00,26.8,19.3,30.26,South,180,0.0,-999.0,73,-99.99,,,0.00,,2017-11-22 22:43:00,
2017-11-22 17:49:00,26.2,19.4,30.26,South,180,0.0,-999.0,75,-99.99,,,0.00,,2017-11-22 22:49:00,
2017-11-22 17:55:00,25.9,19.7,30.26,South,180,0.0,-999.0,77,-99.99,,,0.00,,2017-11-22 22:55:00,
2017-11-22 18:00:00,25.5,19.0,30.26,SSW,202,0.0,-999.0,76,-99.99,,,0.00,,2017-11-22 23:00:00,
2017-11-22 18:06:00,25.3,20.0,29.28,South,180,0.0,-999.0,80,-99.99,,,0.00,,2017-11-22 23:06:00,
2017-11-22 18:11:00,25.0,19.1,30.26,South,180,0.0,-999.0,78,-99.99,,,0.00,,2017-11-22 23:11:00,
2017-11-22 18:29:00,24.3,19.3,30.25,South,180,0.0,-999.0,81,-99.99,,,0.00,,2017-11-22 23:29:00,
2017-11-22 18:34:00,24.1,18.5,30.25,SE,135,0.0,-999.0,79,-99.99,,,0.00,,2017-11-22 23:34:00,
2017-11-22 18:44:00,24.1,19.7,30.24,NNW,337,0.0,-999.0,83,-99.99,,,0.00,,2017-11-22 23:44:00,
2017-11-22 18:49:00,23.9,19.8,30.24,NW,315,0.0,-999.0,84,-99.99,,,0.00,,2017-11-22 23:49:00,
2017-11-22 19:04:00,23.7,20.1,30.24,NW,315,0.0,-999.0,86,-99.99,,,0.00,,2017-11-23 00:04:00,
2017-11-22 19:09:00,23.5,19.9,30.24,West,270,0.0,-999.0,86,-99.99,,,0.00,,2017-11-23 00:09:00,
2017-11-22 19:14:00,23.5,20.5,30.24,West,270,0.0,-999.0,88,-99.99,,,0.00,,2017-11-23 00:14:00,
2017-11-22 19:25:00,23.5,21.0,30.24,WSW,247,0.0,-999.0,90,-99.99,,,0.00,,2017-11-23 00:25:00,
2017-11-22 19:30:00,23.5,21.0,30.25,SW,225,0.0,-999.0,90,-99.99,,,0.00,,2017-11-23 00:30:00,
2017-11-22 19:41:00,23.4,20.9,30.24,WSW,247,0.0,-999.0,90,-99.99,,,0.00,,2017-11-23 00:41:00,
2017-11-22 19:46:00,23.2,20.7,30.24,SSW,202,0.0,-999.0,90,-99.99,,,0.00,,2017-11-23 00:46:00,
2017-11-22 19:51:00,23.0,20.2,30.24,West,270,0.0,-999.0,89,-99.99,,,0.00,,2017-11-23 00:51:00,
2017-11-22 20:07:00,23.0,21.0,30.24,West,270,0.0,-999.0,92,-99.99,,,0.00,,2017-11-23 01:07:00,
2017-11-22 20:18:00,22.8,20.8,30.24,West,270,0.0,-999.0,92,-99.99,,,0.00,,2017-11-23 01:18:00,
2017-11-22 20:23:00,22.6,20.6,30.24,WSW,247,0.0,-999.0,92,-99.99,,,0.00,,2017-11-23 01:23:00,
2017-11-22 20:28:00,22.6,20.6,30.24,SW,225,0.0,-999.0,92,-99.99,,,0.00,,2017-11-23 01:28:00,
2017-11-22 20:34:00,22.5,20.5,30.24,West,270,0.0,-999.0,92,-99.99,,,0.00,,2017-11-23 01:34:00,
2017-11-22 20:39:00,22.5,20.5,30.24,West,270,0.0,-999.0,92,-99.99,,,0.00,,2017-11-23 01:39:00,
2017-11-22 20:45:00,22.5,20.5,30.24,West,270,0.0,-999.0,92,-99.99,,,0.00,,2017-11-23 01:45:00,
2017-11-22 20:47:00,22.5,20.5,30.24,West,270,0.0,-999.0,92,-99.99,,,0.00,,2017-11-23 01:47:00,
2017-11-22 20:52:00,22.3,20.3,30.23,West,270,0.0,-999.0,92,-99.99,,,0.00,,2017-11-23 01:52:00,
2017-11-22 20:57:00,22.3,20.6,30.23,West,270,0.0,-999.0,93,-99.99,,,0.00,,2017-11-23 01:57:00,
2017-11-22 21:02:00,22.3,20.6,30.23,West,270,0.0,-999.0,93,-99.99,,,0.00,,2017-11-23 02:02:00,
2017-11-22 21:08:00,22.3,20.6,30.23,West,270,0.0,-999.0,93,-99.99,,,0.00,,2017-11-23 02:08:00,
2017-11-22 21:13:00,22.3,20.8,30.23,West,270,0.0,-999.0,94,-99.99,,,0.00,,2017-11-23 02:13:00,
2017-11-22 21:19:00,22.3,20.8,30.23,West,270,0.0,-999.0,94,-99.99,,,0.00,,2017-11-23 02:19:00,
2017-11-22 21:24:00,22.3,20.8,29.25,West,270,0.0,-999.0,94,-99.99,,,0.00,,2017-11-23 02:24:00,